createdAt,value
2022-12-06T07:39:31.940Z,3.53
2022-12-06T07:42:17.049Z,3.50
2022-12-06T07:45:02.825Z,3.54
2022-12-06T07:47:37.587Z,3.55
2022-12-06T07:50:05.540Z,3.51
2022-12-06T07:52:36.346Z,3.50
2022-12-06T07:55:05.618Z,3.56
2022-12-06T07:57:32.298Z,3.59
2022-12-06T07:59:58.967Z,3.61
2022-12-06T08:02:27.346Z,3.64
2022-12-06T08:04:54.430Z,3.64
2022-12-06T08:07:25.014Z,3.64
2022-12-06T08:09:53.220Z,3.63
2022-12-06T08:12:20.786Z,3.62
2022-12-06T08:14:47.738Z,3.56
2022-12-06T08:17:14.552Z,3.58
2022-12-06T08:19:41.483Z,3.55
2022-12-06T08:22:08.058Z,3.56
2022-12-06T08:24:34.494Z,3.59
2022-12-06T08:27:00.932Z,3.58
2022-12-06T08:29:27.526Z,3.67
2022-12-06T08:31:53.930Z,3.68
2022-12-06T08:34:20.430Z,3.61
2022-12-06T08:36:46.892Z,3.61
2022-12-06T08:39:13.311Z,3.60
2022-12-06T08:41:58.223Z,3.61
2022-12-06T08:44:26.826Z,3.62
2022-12-06T08:46:54.151Z,3.58
2022-12-06T08:49:21.100Z,3.57
2022-12-06T08:51:47.700Z,3.63
2022-12-06T08:54:16.613Z,3.59
2022-12-06T08:56:43.101Z,3.58
2022-12-06T08:59:09.998Z,3.61
2022-12-06T09:01:38.324Z,3.61
2022-12-06T09:04:07.249Z,3.61
2022-12-06T09:06:33.872Z,3.63
2022-12-06T09:09:00.345Z,3.58
2022-12-06T09:11:26.835Z,3.57
2022-12-06T09:13:53.272Z,3.56
2022-12-06T09:16:21.811Z,3.53
2022-12-06T09:18:48.753Z,3.50
2022-12-06T09:21:17.853Z,3.51
2022-12-06T09:23:44.624Z,3.59
2022-12-06T09:26:11.653Z,3.65
2022-12-06T09:28:39.942Z,3.70
2022-12-06T09:31:07.289Z,3.69
2022-12-06T09:33:34.642Z,3.73
2022-12-06T09:36:04.846Z,3.80
2022-12-06T09:38:32.184Z,3.87
2022-12-06T09:41:10.682Z,3.90
2022-12-06T09:43:55.197Z,3.90
2022-12-06T09:46:45.664Z,3.92
2022-12-06T09:49:29.847Z,3.89
2022-12-06T09:52:15.086Z,3.84
2022-12-06T09:54:53.535Z,3.79
2022-12-06T09:57:42.887Z,3.85
2022-12-06T10:00:17.710Z,3.84
2022-12-06T10:02:55.769Z,3.83
2022-12-06T10:05:33.689Z,3.82
2022-12-06T10:08:06.181Z,3.83
2022-12-06T10:10:54.612Z,3.88
2022-12-06T10:13:29.558Z,3.91
2022-12-06T10:16:18.433Z,3.92
2022-12-06T10:19:24.923Z,3.93
2022-12-06T10:22:18.409Z,3.91
2022-12-06T10:25:06.523Z,3.87
2022-12-06T10:27:53.141Z,3.91
2022-12-06T10:30:19.615Z,3.92
2022-12-06T10:33:12.411Z,3.92
2022-12-06T10:35:43.607Z,3.95
2022-12-06T10:38:28.572Z,3.97
2022-12-06T10:41:06.382Z,3.98
2022-12-06T10:44:06.478Z,4.04
2022-12-06T10:47:00.974Z,4.06
2022-12-06T10:49:49.070Z,4.02
2022-12-06T10:52:31.722Z,4.02
2022-12-06T10:55:15.514Z,4.02
2022-12-06T10:58:18.969Z,4.07
2022-12-06T11:01:00.468Z,4.08
2022-12-06T11:03:33.582Z,4.12
2022-12-06T11:06:05.713Z,4.13
2022-12-06T11:08:42.783Z,4.14
2022-12-06T11:11:18.557Z,4.19
2022-12-06T11:13:51.153Z,4.23
2022-12-06T11:16:21.999Z,4.25
2022-12-06T11:18:49.733Z,4.29
2022-12-06T11:21:48.845Z,4.34
2022-12-06T11:24:15.821Z,4.36
2022-12-06T11:26:46.668Z,4.34
2022-12-06T11:29:15.218Z,4.39
2022-12-06T11:31:54.035Z,4.35
2022-12-06T11:34:24.263Z,4.35
2022-12-06T11:36:58.165Z,4.39
2022-12-06T11:39:26.964Z,4.40
2022-12-06T11:41:56.837Z,4.42
2022-12-06T11:44:26.433Z,4.41
2022-12-06T11:46:58.346Z,4.43
2022-12-06T11:49:39.202Z,4.41
2022-12-06T11:52:35.804Z,4.47
2022-12-06T11:55:05.063Z,4.48
2022-12-06T11:57:38.587Z,4.55
2022-12-06T12:00:18.391Z,4.59
2022-12-06T12:02:46.798Z,4.61
2022-12-06T12:05:16.213Z,4.60
2022-12-06T12:07:45.719Z,4.63
2022-12-06T12:10:34.252Z,4.63
2022-12-06T12:13:31.524Z,4.66
2022-12-06T12:16:00.805Z,4.64
2022-12-06T12:18:30.624Z,4.66
2022-12-06T12:20:57.970Z,4.69
2022-12-06T12:23:30.484Z,4.71
2022-12-06T12:26:16.173Z,4.75
2022-12-06T12:28:44.900Z,4.77
2022-12-06T12:31:23.462Z,4.75
2022-12-06T12:34:19.906Z,4.83
2022-12-06T12:36:48.713Z,4.88
2022-12-06T12:39:23.957Z,4.86
2022-12-06T12:41:50.427Z,4.81
2022-12-06T12:44:42.419Z,4.78
2022-12-06T12:47:21.502Z,4.76
2022-12-06T12:50:20.292Z,4.78
2022-12-06T12:52:47.211Z,4.72
2022-12-06T12:55:24.035Z,4.69
2022-12-06T12:57:52.485Z,4.63
2022-12-06T13:00:32.050Z,4.63
2022-12-06T13:03:28.536Z,4.63
2022-12-06T13:05:57.122Z,4.63
2022-12-06T13:08:31.174Z,4.62
2022-12-06T13:10:59.575Z,4.62
2022-12-06T13:13:35.874Z,4.60
2022-12-06T13:16:08.822Z,4.65
2022-12-06T13:18:46.815Z,4.65
2022-12-06T13:21:25.543Z,4.72
2022-12-06T13:24:10.215Z,4.69
2022-12-06T13:26:43.265Z,4.69
2022-12-06T13:29:33.822Z,4.67
2022-12-06T13:32:09.055Z,4.62
2022-12-06T13:34:40.041Z,4.61
2022-12-06T13:37:34.301Z,4.63
2022-12-06T13:40:02.452Z,4.66
2022-12-06T13:42:37.930Z,4.69
2022-12-06T13:45:43.668Z,4.68
2022-12-06T13:48:28.176Z,4.69
2022-12-06T13:51:03.171Z,4.65
2022-12-06T13:53:33.760Z,4.69
2022-12-06T13:56:03.359Z,4.72
2022-12-06T13:58:29.669Z,4.75
2022-12-06T14:00:56.691Z,4.77
2022-12-06T14:03:25.966Z,4.80
2022-12-06T14:06:12.066Z,4.79
2022-12-06T14:08:44.988Z,4.82
2022-12-06T14:11:25.858Z,4.81
2022-12-06T14:13:55.211Z,4.86
2022-12-06T14:16:39.098Z,4.87
2022-12-06T14:19:22.228Z,4.87
2022-12-06T14:21:57.481Z,4.85
2022-12-06T14:24:28.662Z,4.78
2022-12-06T14:26:55.219Z,4.81
2022-12-06T14:29:23.537Z,4.86
2022-12-06T14:31:51.540Z,4.90
2022-12-06T14:34:26.189Z,4.98
2022-12-06T14:36:53.130Z,4.93
2022-12-06T14:39:23.274Z,4.97
2022-12-06T14:42:22.721Z,4.92
2022-12-06T14:44:58.697Z,4.95
2022-12-06T14:47:28.372Z,4.93
2022-12-06T14:50:17.014Z,4.91
2022-12-06T14:52:58.677Z,4.91
2022-12-06T14:55:25.910Z,4.95
2022-12-06T14:58:19.940Z,4.95
2022-12-06T15:00:53.823Z,4.93
2022-12-06T15:03:56.568Z,4.96
2022-12-06T15:06:24.793Z,4.93
2022-12-06T15:09:12.865Z,4.90
2022-12-06T15:12:00.162Z,4.87
2022-12-06T15:14:48.295Z,4.86
2022-12-06T15:17:18.196Z,4.91
2022-12-06T15:19:52.686Z,4.92
2022-12-06T15:22:25.461Z,4.92
2022-12-06T15:24:57.434Z,4.90
2022-12-06T15:27:26.737Z,4.90
2022-12-06T15:29:53.106Z,4.93
2022-12-06T15:32:21.711Z,4.89
2022-12-06T15:34:48.300Z,4.86
2022-12-06T15:37:38.027Z,4.87
2022-12-06T15:40:03.243Z,4.88
2022-12-06T15:42:29.795Z,4.90
2022-12-06T15:44:56.211Z,4.89
2022-12-06T15:47:22.692Z,4.91
2022-12-06T15:49:51.552Z,4.90
2022-12-06T15:52:22.866Z,4.95
2022-12-06T15:54:49.330Z,4.96
2022-12-06T15:57:15.852Z,4.95
2022-12-06T15:59:42.288Z,4.92
2022-12-06T16:02:16.227Z,4.92
2022-12-06T16:04:43.394Z,4.97
2022-12-06T16:07:10.501Z,4.96
2022-12-06T16:09:36.940Z,4.87
2022-12-06T16:12:03.571Z,4.78
2022-12-06T16:14:31.246Z,4.71
2022-12-06T16:16:57.702Z,4.69
2022-12-06T16:19:24.098Z,4.69
2022-12-06T16:21:52.932Z,4.69
2022-12-06T16:24:19.782Z,4.67
2022-12-06T16:26:46.622Z,4.67
2022-12-06T16:29:20.527Z,4.65
2022-12-06T16:31:47.494Z,4.66
2022-12-06T16:34:14.106Z,4.65
2022-12-06T16:36:58.815Z,4.65
2022-12-06T16:39:25.302Z,4.66
2022-12-06T16:41:51.694Z,4.68
2022-12-06T16:44:18.117Z,4.69
2022-12-06T16:46:46.277Z,4.71
2022-12-06T16:52:07.539Z,4.70
2022-12-06T16:54:34.486Z,4.70
2022-12-06T16:57:00.904Z,4.70
2022-12-06T16:59:27.367Z,4.65
2022-12-06T17:01:55.084Z,4.64
2022-12-06T17:04:22.172Z,4.64
2022-12-06T17:06:48.719Z,4.61
2022-12-06T17:09:15.283Z,4.62
2022-12-06T17:12:00.254Z,4.62
2022-12-06T17:14:26.984Z,4.63
2022-12-06T17:16:53.870Z,4.66
2022-12-06T17:19:27.696Z,4.61
2022-12-06T17:21:54.272Z,4.65
2022-12-06T17:24:21.922Z,4.69
2022-12-06T17:26:48.507Z,4.72
2022-12-06T17:29:16.232Z,4.72
2022-12-06T17:31:42.899Z,4.71
2022-12-06T17:34:11.711Z,4.70
2022-12-06T17:36:39.617Z,4.70
2022-12-06T17:39:07.507Z,4.73
2022-12-06T17:41:52.651Z,4.73
2022-12-06T17:44:19.425Z,4.67
2022-12-06T17:46:45.834Z,4.64
2022-12-06T17:49:18.767Z,4.66
2022-12-06T17:51:45.254Z,4.67
2022-12-06T17:54:12.587Z,4.68
2022-12-06T17:56:41.274Z,4.67
2022-12-06T17:59:13.170Z,4.72
2022-12-06T18:02:12.797Z,4.69
2022-12-06T18:04:28.092Z,4.74
2022-12-06T18:06:54.645Z,4.72
2022-12-06T18:09:21.405Z,4.72
2022-12-06T18:11:48.846Z,4.72
2022-12-06T18:14:15.914Z,4.73
2022-12-06T18:16:45.570Z,4.67
2022-12-06T18:19:14.797Z,4.67
2022-12-06T18:21:41.609Z,4.62
2022-12-06T18:24:29.101Z,4.62
2022-12-06T18:26:56.271Z,4.63
2022-12-06T18:29:24.248Z,4.62
2022-12-06T18:31:51.360Z,4.59
2022-12-06T18:34:17.981Z,4.53
2022-12-06T18:36:44.564Z,4.51
2022-12-06T18:39:16.838Z,4.49
2022-12-06T18:41:44.195Z,4.48
2022-12-06T18:44:11.813Z,4.49
2022-12-06T18:46:39.241Z,4.47
2022-12-06T18:49:06.444Z,4.51
2022-12-06T18:51:34.336Z,4.48
2022-12-06T18:54:02.314Z,4.48
2022-12-06T18:56:30.093Z,4.51
2022-12-06T18:59:00.533Z,4.50
2022-12-06T19:01:29.471Z,4.51
2022-12-06T19:03:59.380Z,4.48
2022-12-06T19:06:28.119Z,4.47
2022-12-06T19:08:56.556Z,4.48
2022-12-06T19:11:23.781Z,4.51
2022-12-06T19:13:54.947Z,4.50
2022-12-06T19:16:26.796Z,4.49
2022-12-06T19:18:55.120Z,4.48
2022-12-06T19:21:21.623Z,4.49
2022-12-06T19:23:48.339Z,4.49
2022-12-06T19:26:14.863Z,4.52
2022-12-06T19:28:41.592Z,4.48
2022-12-06T19:31:13.858Z,4.43
2022-12-06T19:33:43.152Z,4.46
2022-12-06T19:36:14.848Z,4.43
2022-12-06T19:38:42.132Z,4.47
2022-12-06T19:41:11.199Z,4.51
2022-12-06T19:43:56.309Z,4.47
2022-12-06T19:46:26.038Z,4.45
2022-12-06T19:48:55.654Z,4.47
2022-12-06T19:51:22.654Z,4.43
2022-12-06T19:53:49.209Z,4.43
2022-12-06T19:56:16.945Z,4.42
2022-12-06T19:58:44.173Z,4.39
2022-12-06T20:01:14.118Z,4.37
2022-12-06T20:03:40.628Z,4.30
2022-12-06T20:06:16.529Z,4.29
2022-12-06T20:08:45.657Z,4.35
2022-12-06T20:11:32.853Z,4.38
2022-12-06T20:14:00.860Z,4.45
2022-12-06T20:16:27.264Z,4.40
2022-12-06T20:18:54.194Z,4.32
2022-12-06T20:21:20.595Z,4.37
2022-12-06T20:23:48.223Z,4.41
2022-12-06T20:26:15.185Z,4.39
2022-12-06T20:28:46.728Z,4.38
2022-12-06T20:31:17.483Z,4.36
2022-12-06T20:33:43.941Z,4.36
2022-12-06T20:36:11.904Z,4.36
2022-12-06T20:38:38.723Z,4.39
2022-12-06T20:41:13.505Z,4.41
2022-12-06T20:43:40.658Z,4.39
2022-12-06T20:46:15.278Z,4.31
2022-12-06T20:48:42.898Z,4.35
2022-12-06T20:51:34.261Z,4.32
2022-12-06T20:54:03.436Z,4.29
2022-12-06T20:56:32.694Z,4.29
2022-12-06T20:59:00.960Z,4.33
2022-12-06T21:01:30.522Z,4.33
2022-12-06T21:03:57.403Z,4.30
2022-12-06T21:06:24.860Z,4.29
2022-12-06T21:08:51.678Z,4.31
2022-12-06T21:11:23.122Z,4.32
2022-12-06T21:13:53.699Z,4.32
2022-12-06T21:16:26.239Z,4.32
2022-12-06T21:19:20.797Z,4.30
2022-12-06T21:21:49.976Z,4.31
2022-12-06T21:24:18.853Z,4.28
2022-12-06T21:26:46.130Z,4.30
2022-12-06T21:29:17.684Z,4.24
2022-12-06T21:31:44.506Z,4.24
2022-12-06T21:34:12.071Z,4.22
2022-12-06T21:36:38.592Z,4.22
2022-12-06T21:39:05.415Z,4.22
2022-12-06T21:41:31.881Z,4.18
2022-12-06T21:43:59.739Z,4.16
2022-12-06T21:46:27.511Z,4.16
2022-12-06T21:48:59.086Z,4.21
2022-12-06T21:51:28.158Z,4.21
2022-12-06T21:53:55.353Z,4.23
2022-12-06T21:56:33.532Z,4.21
2022-12-06T21:59:01.081Z,4.13
2022-12-06T22:01:29.275Z,4.14
2022-12-06T22:04:01.127Z,4.16
2022-12-06T22:06:27.583Z,4.12
2022-12-06T22:08:59.871Z,4.13
2022-12-06T22:11:27.050Z,4.12
2022-12-06T22:13:53.522Z,4.14
2022-12-06T22:16:20.085Z,4.14
2022-12-06T22:18:46.643Z,4.09
2022-12-06T22:21:16.498Z,4.05
2022-12-06T22:23:43.372Z,3.98
2022-12-06T22:26:13.481Z,3.96
2022-12-06T22:28:40.032Z,3.93
2022-12-06T22:31:13.537Z,3.88
2022-12-06T22:33:40.138Z,3.82
2022-12-06T22:36:07.438Z,3.75
2022-12-06T22:38:33.914Z,3.69
2022-12-06T22:41:01.627Z,3.65
2022-12-06T22:43:28.741Z,3.67
2022-12-06T22:45:55.538Z,3.67
2022-12-06T22:48:22.897Z,3.69
2022-12-06T22:50:49.319Z,3.65
2022-12-06T22:53:15.767Z,3.67
2022-12-06T22:55:42.166Z,3.69
